sensor_id;sensor_type;location;lat;lon;timestamp;temperature;humidity
51867;DHT22;52862;52.504;13.480;2023-12-04T00:02:02;-2.10;99.90
51867;DHT22;52862;52.504;13.480;2023-12-04T00:04:30;-2.30;99.90
51867;DHT22;52862;52.504;13.480;2023-12-04T00:06:57;-2.30;99.90
51867;DHT22;52862;52.504;13.480;2023-12-04T00:11:51;-2.90;99.90
51867;DHT22;52862;52.504;13.480;2023-12-04T00:14:19;-1.60;99.90
51867;DHT22;52862;52.504;13.480;2023-12-04T00:16:45;-2.40;99.90
51867;DHT22;52862;52.504;13.480;2023-12-04T00:19:12;-0.50;99.90
51867;DHT22;52862;52.504;13.480;2023-12-04T00:21:39;-2.00;99.90
51867;DHT22;52862;52.504;13.480;2023-12-04T00:24:06;-1.80;99.90
51867;DHT22;52862;52.504;13.480;2023-12-04T00:26:33;-2.60;99.90
51867;DHT22;52862;52.504;13.480;2023-12-04T00:28:59;-2.60;99.90
51867;DHT22;52862;52.504;13.480;2023-12-04T00:31:28;-3.20;99.90
51867;DHT22;52862;52.504;13.480;2023-12-04T00:33:55;-2.70;99.90
51867;DHT22;52862;52.504;13.480;2023-12-04T00:36:22;-2.60;99.90
51867;DHT22;52862;52.504;13.480;2023-12-04T00:38:49;-2.80;99.90
51867;DHT22;52862;52.504;13.480;2023-12-04T00:41:15;-2.10;99.90
51867;DHT22;52862;52.504;13.480;2023-12-04T00:43:42;-3.00;99.90
51867;DHT22;52862;52.504;13.480;2023-12-04T00:46:09;-2.70;99.90
51867;DHT22;52862;52.504;13.480;2023-12-04T00:48:36;-3.10;99.90
51867;DHT22;52862;52.504;13.480;2023-12-04T00:51:04;-1.50;99.90
51867;DHT22;52862;52.504;13.480;2023-12-04T00:53:30;-2.70;99.90
51867;DHT22;52862;52.504;13.480;2023-12-04T00:55:57;-0.30;99.90
51867;DHT22;52862;52.504;13.480;2023-12-04T00:58:24;-1.80;99.90
51867;DHT22;52862;52.504;13.480;2023-12-04T01:00:51;-2.60;99.90
51867;DHT22;52862;52.504;13.480;2023-12-04T01:03:18;-2.50;99.90
51867;DHT22;52862;52.504;13.480;2023-12-04T01:05:45;-0.40;99.90
51867;DHT22;52862;52.504;13.480;2023-12-04T01:08:12;-0.70;99.90
51867;DHT22;52862;52.504;13.480;2023-12-04T01:10:39;-2.80;99.90
51867;DHT22;52862;52.504;13.480;2023-12-04T01:13:06;-2.70;99.90
51867;DHT22;52862;52.504;13.480;2023-12-04T01:15:33;-1.80;99.90
51867;DHT22;52862;52.504;13.480;2023-12-04T01:17:59;-2.70;99.90
51867;DHT22;52862;52.504;13.480;2023-12-04T01:20:27;-2.80;99.90
51867;DHT22;52862;52.504;13.480;2023-12-04T01:22:54;-2.70;99.90
51867;DHT22;52862;52.504;13.480;2023-12-04T01:25:21;-3.00;99.90
51867;DHT22;52862;52.504;13.480;2023-12-04T01:27:47;-2.80;99.90
51867;DHT22;52862;52.504;13.480;2023-12-04T01:30:14;-2.70;99.90
51867;DHT22;52862;52.504;13.480;2023-12-04T01:32:41;-2.80;99.90
51867;DHT22;52862;52.504;13.480;2023-12-04T01:35:08;-2.90;99.90
51867;DHT22;52862;52.504;13.480;2023-12-04T01:37:36;-3.50;99.90
51867;DHT22;52862;52.504;13.480;2023-12-04T01:40:04;-2.80;99.90
51867;DHT22;52862;52.504;13.480;2023-12-04T01:42:33;-2.90;99.90
51867;DHT22;52862;52.504;13.480;2023-12-04T01:45:00;-2.90;99.90
51867;DHT22;52862;52.504;13.480;2023-12-04T01:47:27;-3.10;99.90
51867;DHT22;52862;52.504;13.480;2023-12-04T01:49:54;-3.20;99.90
51867;DHT22;52862;52.504;13.480;2023-12-04T01:52:20;-2.90;99.90
51867;DHT22;52862;52.504;13.480;2023-12-04T01:54:47;-2.90;99.90
51867;DHT22;52862;52.504;13.480;2023-12-04T01:57:15;-2.20;99.90
51867;DHT22;52862;52.504;13.480;2023-12-04T01:59:41;-3.00;99.90
51867;DHT22;52862;52.504;13.480;2023-12-04T02:02:10;-3.00;99.90
51867;DHT22;52862;52.504;13.480;2023-12-04T02:04:36;-1.90;99.90
51867;DHT22;52862;52.504;13.480;2023-12-04T02:07:03;-2.80;99.90
51867;DHT22;52862;52.504;13.480;2023-12-04T02:09:30;-2.90;99.90
51867;DHT22;52862;52.504;13.480;2023-12-04T02:11:59;-2.10;99.90
51867;DHT22;52862;52.504;13.480;2023-12-04T02:14:26;-1.30;99.90
51867;DHT22;52862;52.504;13.480;2023-12-04T02:16:54;-2.70;99.90
51867;DHT22;52862;52.504;13.480;2023-12-04T02:19:23;-1.50;99.90
51867;DHT22;52862;52.504;13.480;2023-12-04T02:21:51;-3.10;99.90
51867;DHT22;52862;52.504;13.480;2023-12-04T02:24:18;-2.20;99.90
51867;DHT22;52862;52.504;13.480;2023-12-04T02:26:48;-2.70;99.90
51867;DHT22;52862;52.504;13.480;2023-12-04T02:29:23;-2.80;99.90
51867;DHT22;52862;52.504;13.480;2023-12-04T02:31:51;-1.40;99.90
51867;DHT22;52862;52.504;13.480;2023-12-04T02:34:20;-2.80;99.90
51867;DHT22;52862;52.504;13.480;2023-12-04T02:36:48;-3.20;99.90
51867;DHT22;52862;52.504;13.480;2023-12-04T02:39:15;-2.70;99.90
51867;DHT22;52862;52.504;13.480;2023-12-04T02:41:43;-2.90;99.90
51867;DHT22;52862;52.504;13.480;2023-12-04T02:44:09;-2.90;99.90
51867;DHT22;52862;52.504;13.480;2023-12-04T02:46:37;-2.90;99.90
51867;DHT22;52862;52.504;13.480;2023-12-04T02:49:04;-2.90;99.90
51867;DHT22;52862;52.504;13.480;2023-12-04T02:51:31;-2.80;99.90
51867;DHT22;52862;52.504;13.480;2023-12-04T02:53:58;-2.70;99.90
51867;DHT22;52862;52.504;13.480;2023-12-04T02:56:24;-1.40;99.90
51867;DHT22;52862;52.504;13.480;2023-12-04T02:58:52;-2.60;99.90
51867;DHT22;52862;52.504;13.480;2023-12-04T03:01:18;-1.40;99.90
51867;DHT22;52862;52.504;13.480;2023-12-04T03:03:45;-2.90;99.90
51867;DHT22;52862;52.504;13.480;2023-12-04T03:06:12;-2.90;99.90
51867;DHT22;52862;52.504;13.480;2023-12-04T03:08:42;-1.10;99.90
51867;DHT22;52862;52.504;13.480;2023-12-04T03:11:09;-2.80;99.90
51867;DHT22;52862;52.504;13.480;2023-12-04T03:13:35;-0.60;99.90
51867;DHT22;52862;52.504;13.480;2023-12-04T03:16:03;-2.90;99.90
51867;DHT22;52862;52.504;13.480;2023-12-04T03:18:30;-2.90;99.90
51867;DHT22;52862;52.504;13.480;2023-12-04T03:20:57;-1.80;99.90
51867;DHT22;52862;52.504;13.480;2023-12-04T03:23:24;-2.60;99.90
51867;DHT22;52862;52.504;13.480;2023-12-04T03:25:51;-1.80;99.90
51867;DHT22;52862;52.504;13.480;2023-12-04T03:28:17;-2.80;99.90
51867;DHT22;52862;52.504;13.480;2023-12-04T03:30:44;-1.20;99.90
51867;DHT22;52862;52.504;13.480;2023-12-04T03:33:12;-3.00;99.90
51867;DHT22;52862;52.504;13.480;2023-12-04T03:35:39;-2.90;99.90
51867;DHT22;52862;52.504;13.480;2023-12-04T03:38:06;-1.80;99.90
51867;DHT22;52862;52.504;13.480;2023-12-04T03:40:32;-1.70;99.90
51867;DHT22;52862;52.504;13.480;2023-12-04T03:42:59;-2.70;99.90
51867;DHT22;52862;52.504;13.480;2023-12-04T03:45:26;-2.30;99.90
51867;DHT22;52862;52.504;13.480;2023-12-04T03:47:53;-0.10;99.90
51867;DHT22;52862;52.504;13.480;2023-12-04T03:50:20;-3.00;99.90
51867;DHT22;52862;52.504;13.480;2023-12-04T03:52:47;-3.10;99.90
51867;DHT22;52862;52.504;13.480;2023-12-04T03:55:14;-2.90;99.90
51867;DHT22;52862;52.504;13.480;2023-12-04T03:57:41;-3.60;99.90
51867;DHT22;52862;52.504;13.480;2023-12-04T04:00:10;-3.10;99.90
51867;DHT22;52862;52.504;13.480;2023-12-04T04:02:39;-3.00;99.90
51867;DHT22;52862;52.504;13.480;2023-12-04T04:05:06;-2.50;99.90
51867;DHT22;52862;52.504;13.480;2023-12-04T04:07:33;-3.10;99.90
51867;DHT22;52862;52.504;13.480;2023-12-04T04:10:00;-2.80;99.90
51867;DHT22;52862;52.504;13.480;2023-12-04T04:12:27;-3.00;99.90
51867;DHT22;52862;52.504;13.480;2023-12-04T04:14:54;-2.80;99.90
51867;DHT22;52862;52.504;13.480;2023-12-04T04:17:20;-3.10;99.90
51867;DHT22;52862;52.504;13.480;2023-12-04T04:19:47;-3.00;99.90
51867;DHT22;52862;52.504;13.480;2023-12-04T04:22:14;-2.80;99.90
51867;DHT22;52862;52.504;13.480;2023-12-04T04:24:41;-2.20;99.90
51867;DHT22;52862;52.504;13.480;2023-12-04T04:27:08;-2.90;99.90
51867;DHT22;52862;52.504;13.480;2023-12-04T04:29:34;-3.00;99.90
51867;DHT22;52862;52.504;13.480;2023-12-04T04:32:01;-3.10;99.90
51867;DHT22;52862;52.504;13.480;2023-12-04T04:34:28;-3.00;99.90
51867;DHT22;52862;52.504;13.480;2023-12-04T04:36:56;-2.00;99.90
51867;DHT22;52862;52.504;13.480;2023-12-04T04:39:22;-1.30;99.90
51867;DHT22;52862;52.504;13.480;2023-12-04T04:41:50;-2.60;99.90
51867;DHT22;52862;52.504;13.480;2023-12-04T04:44:16;-1.30;99.90
51867;DHT22;52862;52.504;13.480;2023-12-04T04:46:43;-1.40;99.90
51867;DHT22;52862;52.504;13.480;2023-12-04T04:49:10;-2.90;99.90
51867;DHT22;52862;52.504;13.480;2023-12-04T04:51:37;0.00;99.90
51867;DHT22;52862;52.504;13.480;2023-12-04T04:54:03;-2.60;99.90
51867;DHT22;52862;52.504;13.480;2023-12-04T04:56:30;-2.90;99.90
51867;DHT22;52862;52.504;13.480;2023-12-04T04:58:57;-2.60;99.90
51867;DHT22;52862;52.504;13.480;2023-12-04T05:01:24;-2.80;99.90
51867;DHT22;52862;52.504;13.480;2023-12-04T05:03:51;-3.20;99.90
51867;DHT22;52862;52.504;13.480;2023-12-04T05:06:18;-2.60;99.90
51867;DHT22;52862;52.504;13.480;2023-12-04T05:08:44;-3.70;99.90
51867;DHT22;52862;52.504;13.480;2023-12-04T05:11:14;-2.80;99.90
51867;DHT22;52862;52.504;13.480;2023-12-04T05:13:41;-2.70;99.90
51867;DHT22;52862;52.504;13.480;2023-12-04T05:16:09;-2.80;99.90
51867;DHT22;52862;52.504;13.480;2023-12-04T05:18:36;-3.20;99.90
51867;DHT22;52862;52.504;13.480;2023-12-04T05:21:03;-2.00;99.90
51867;DHT22;52862;52.504;13.480;2023-12-04T05:23:30;-2.90;99.90
51867;DHT22;52862;52.504;13.480;2023-12-04T05:25:56;-0.50;99.90
51867;DHT22;52862;52.504;13.480;2023-12-04T05:28:23;-3.10;99.90
51867;DHT22;52862;52.504;13.480;2023-12-04T05:30:50;-2.80;99.90
51867;DHT22;52862;52.504;13.480;2023-12-04T05:33:17;-1.00;99.90
51867;DHT22;52862;52.504;13.480;2023-12-04T05:35:45;-0.80;99.90
51867;DHT22;52862;52.504;13.480;2023-12-04T05:38:12;-1.40;99.90
51867;DHT22;52862;52.504;13.480;2023-12-04T05:40:39;-3.40;99.90
51867;DHT22;52862;52.504;13.480;2023-12-04T05:43:06;-2.90;99.90
51867;DHT22;52862;52.504;13.480;2023-12-04T05:45:32;-3.00;99.90
51867;DHT22;52862;52.504;13.480;2023-12-04T05:47:59;-3.00;99.90
51867;DHT22;52862;52.504;13.480;2023-12-04T05:50:26;-3.00;99.90
51867;DHT22;52862;52.504;13.480;2023-12-04T05:52:53;-2.80;99.90
51867;DHT22;52862;52.504;13.480;2023-12-04T05:55:20;-2.90;99.90
51867;DHT22;52862;52.504;13.480;2023-12-04T05:57:47;-2.70;99.90
51867;DHT22;52862;52.504;13.480;2023-12-04T06:00:14;-2.90;99.90
51867;DHT22;52862;52.504;13.480;2023-12-04T06:02:41;-3.00;99.90
51867;DHT22;52862;52.504;13.480;2023-12-04T06:05:09;-0.70;99.90
51867;DHT22;52862;52.504;13.480;2023-12-04T06:07:37;-2.30;99.90
51867;DHT22;52862;52.504;13.480;2023-12-04T06:10:05;-2.80;99.90
51867;DHT22;52862;52.504;13.480;2023-12-04T06:12:32;-2.90;99.90
51867;DHT22;52862;52.504;13.480;2023-12-04T06:14:59;-2.80;99.90
51867;DHT22;52862;52.504;13.480;2023-12-04T06:17:26;-2.70;99.90
51867;DHT22;52862;52.504;13.480;2023-12-04T06:19:53;-2.40;99.90
51867;DHT22;52862;52.504;13.480;2023-12-04T06:22:20;-2.90;99.90
51867;DHT22;52862;52.504;13.480;2023-12-04T06:24:49;-3.00;99.90
51867;DHT22;52862;52.504;13.480;2023-12-04T06:27:17;-2.70;99.90
51867;DHT22;52862;52.504;13.480;2023-12-04T06:29:46;-3.00;99.90
51867;DHT22;52862;52.504;13.480;2023-12-04T06:32:18;-2.50;99.90
51867;DHT22;52862;52.504;13.480;2023-12-04T06:34:46;-2.70;99.90
51867;DHT22;52862;52.504;13.480;2023-12-04T06:37:14;-1.90;99.90
51867;DHT22;52862;52.504;13.480;2023-12-04T06:39:42;-2.60;99.90
51867;DHT22;52862;52.504;13.480;2023-12-04T06:42:12;-2.60;99.90
51867;DHT22;52862;52.504;13.480;2023-12-04T06:44:40;-2.50;99.90
51867;DHT22;52862;52.504;13.480;2023-12-04T06:47:08;-2.60;99.90
51867;DHT22;52862;52.504;13.480;2023-12-04T06:49:35;-2.60;99.90
51867;DHT22;52862;52.504;13.480;2023-12-04T06:52:02;-0.40;99.90
51867;DHT22;52862;52.504;13.480;2023-12-04T06:54:30;-2.60;99.90
51867;DHT22;52862;52.504;13.480;2023-12-04T06:56:56;-2.40;99.90
51867;DHT22;52862;52.504;13.480;2023-12-04T06:59:24;-2.50;99.90
51867;DHT22;52862;52.504;13.480;2023-12-04T07:01:50;-3.00;99.90
51867;DHT22;52862;52.504;13.480;2023-12-04T07:04:17;-2.20;99.90
51867;DHT22;52862;52.504;13.480;2023-12-04T07:06:47;-2.20;99.90
51867;DHT22;52862;52.504;13.480;2023-12-04T07:09:14;-2.30;99.90
51867;DHT22;52862;52.504;13.480;2023-12-04T07:11:43;-2.40;99.90
51867;DHT22;52862;52.504;13.480;2023-12-04T07:14:10;-1.50;99.90
51867;DHT22;52862;52.504;13.480;2023-12-04T07:16:41;-2.10;99.90
51867;DHT22;52862;52.504;13.480;2023-12-04T07:19:08;-2.20;99.90
51867;DHT22;52862;52.504;13.480;2023-12-04T07:21:37;-1.90;99.90
51867;DHT22;52862;52.504;13.480;2023-12-04T07:24:04;-2.20;99.90
51867;DHT22;52862;52.504;13.480;2023-12-04T07:26:31;-2.10;99.90
51867;DHT22;52862;52.504;13.480;2023-12-04T07:28:58;-1.50;99.90
51867;DHT22;52862;52.504;13.480;2023-12-04T07:31:25;-2.00;99.90
51867;DHT22;52862;52.504;13.480;2023-12-04T07:33:53;-2.10;99.90
51867;DHT22;52862;52.504;13.480;2023-12-04T07:36:20;-2.10;99.90
51867;DHT22;52862;52.504;13.480;2023-12-04T07:38:47;-1.50;99.90
51867;DHT22;52862;52.504;13.480;2023-12-04T07:41:13;-2.20;99.90
51867;DHT22;52862;52.504;13.480;2023-12-04T07:43:41;-2.20;99.90
51867;DHT22;52862;52.504;13.480;2023-12-04T07:46:09;-1.90;99.90
51867;DHT22;52862;52.504;13.480;2023-12-04T07:48:37;-2.10;99.90
51867;DHT22;52862;52.504;13.480;2023-12-04T07:51:05;-2.20;99.90
51867;DHT22;52862;52.504;13.480;2023-12-04T07:53:32;-2.00;99.90
51867;DHT22;52862;52.504;13.480;2023-12-04T07:56:01;-2.00;99.90
51867;DHT22;52862;52.504;13.480;2023-12-04T07:58:30;-2.00;99.90
51867;DHT22;52862;52.504;13.480;2023-12-04T08:00:57;0.40;99.90
51867;DHT22;52862;52.504;13.480;2023-12-04T08:03:24;-2.00;99.90
51867;DHT22;52862;52.504;13.480;2023-12-04T08:05:51;-1.80;99.90
51867;DHT22;52862;52.504;13.480;2023-12-04T08:08:19;-1.80;99.90
51867;DHT22;52862;52.504;13.480;2023-12-04T08:10:48;-1.60;99.90
51867;DHT22;52862;52.504;13.480;2023-12-04T08:13:15;-1.60;99.90
51867;DHT22;52862;52.504;13.480;2023-12-04T08:15:43;-1.40;99.90
51867;DHT22;52862;52.504;13.480;2023-12-04T08:18:10;-1.30;99.90
51867;DHT22;52862;52.504;13.480;2023-12-04T08:20:37;-1.40;99.90
51867;DHT22;52862;52.504;13.480;2023-12-04T08:23:07;-1.40;99.90
51867;DHT22;52862;52.504;13.480;2023-12-04T08:25:36;-1.30;99.90
51867;DHT22;52862;52.504;13.480;2023-12-04T08:28:04;-1.30;99.90
51867;DHT22;52862;52.504;13.480;2023-12-04T08:30:32;-1.10;99.90
51867;DHT22;52862;52.504;13.480;2023-12-04T08:32:59;-1.10;99.90
51867;DHT22;52862;52.504;13.480;2023-12-04T08:35:26;-1.40;99.90
51867;DHT22;52862;52.504;13.480;2023-12-04T08:37:53;-1.20;99.90
51867;DHT22;52862;52.504;13.480;2023-12-04T08:40:20;-1.00;99.90
51867;DHT22;52862;52.504;13.480;2023-12-04T08:42:48;-0.40;99.90
51867;DHT22;52862;52.504;13.480;2023-12-04T08:45:15;0.60;99.90
51867;DHT22;52862;52.504;13.480;2023-12-04T08:47:44;-1.00;99.90
51867;DHT22;52862;52.504;13.480;2023-12-04T08:50:11;-1.00;99.90
51867;DHT22;52862;52.504;13.480;2023-12-04T08:52:38;-1.00;99.90
51867;DHT22;52862;52.504;13.480;2023-12-04T08:55:08;-1.10;99.90
51867;DHT22;52862;52.504;13.480;2023-12-04T08:57:35;-0.80;99.90
51867;DHT22;52862;52.504;13.480;2023-12-04T09:00:03;-0.90;99.90
51867;DHT22;52862;52.504;13.480;2023-12-04T09:02:30;0.40;99.90
51867;DHT22;52862;52.504;13.480;2023-12-04T09:04:57;0.10;99.90
51867;DHT22;52862;52.504;13.480;2023-12-04T09:07:25;-0.40;99.90
51867;DHT22;52862;52.504;13.480;2023-12-04T09:10:12;-1.40;99.90
51867;DHT22;52862;52.504;13.480;2023-12-04T09:12:51;-0.80;99.90
51867;DHT22;52862;52.504;13.480;2023-12-04T09:15:19;-0.90;99.90
51867;DHT22;52862;52.504;13.480;2023-12-04T09:17:46;-0.80;99.90
51867;DHT22;52862;52.504;13.480;2023-12-04T09:20:13;-0.80;99.90
51867;DHT22;52862;52.504;13.480;2023-12-04T09:22:40;-0.90;99.90
51867;DHT22;52862;52.504;13.480;2023-12-04T09:25:18;-0.10;99.90
51867;DHT22;52862;52.504;13.480;2023-12-04T09:27:45;-0.50;99.90
51867;DHT22;52862;52.504;13.480;2023-12-04T09:30:13;-0.70;99.90
51867;DHT22;52862;52.504;13.480;2023-12-04T09:32:40;-0.80;99.90
51867;DHT22;52862;52.504;13.480;2023-12-04T09:35:08;-0.10;99.90
51867;DHT22;52862;52.504;13.480;2023-12-04T09:37:36;-0.70;99.90
51867;DHT22;52862;52.504;13.480;2023-12-04T09:40:03;-0.40;99.90
51867;DHT22;52862;52.504;13.480;2023-12-04T09:42:32;-0.50;99.90
51867;DHT22;52862;52.504;13.480;2023-12-04T09:44:59;-0.50;99.90
51867;DHT22;52862;52.504;13.480;2023-12-04T09:47:28;-0.50;99.90
51867;DHT22;52862;52.504;13.480;2023-12-04T09:49:57;-0.20;99.90
51867;DHT22;52862;52.504;13.480;2023-12-04T09:52:24;0.20;99.90
51867;DHT22;52862;52.504;13.480;2023-12-04T09:54:54;-0.10;99.90
51867;DHT22;52862;52.504;13.480;2023-12-04T09:57:22;-0.40;99.90
51867;DHT22;52862;52.504;13.480;2023-12-04T09:59:51;-0.30;99.90
51867;DHT22;52862;52.504;13.480;2023-12-04T10:02:18;-0.20;99.90
51867;DHT22;52862;52.504;13.480;2023-12-04T10:04:46;-0.20;99.90
51867;DHT22;52862;52.504;13.480;2023-12-04T10:07:13;-0.10;99.90
51867;DHT22;52862;52.504;13.480;2023-12-04T10:09:40;0.40;99.90
51867;DHT22;52862;52.504;13.480;2023-12-04T10:12:07;0.30;99.90
51867;DHT22;52862;52.504;13.480;2023-12-04T10:14:34;0.60;99.90
51867;DHT22;52862;52.504;13.480;2023-12-04T10:17:14;0.50;99.90
51867;DHT22;52862;52.504;13.480;2023-12-04T10:19:41;0.10;99.90
51867;DHT22;52862;52.504;13.480;2023-12-04T10:22:08;0.10;99.90
51867;DHT22;52862;52.504;13.480;2023-12-04T10:24:38;0.30;99.90
51867;DHT22;52862;52.504;13.480;2023-12-04T10:27:07;0.30;99.90
51867;DHT22;52862;52.504;13.480;2023-12-04T10:29:43;0.70;99.90
51867;DHT22;52862;52.504;13.480;2023-12-04T10:32:12;0.40;99.90
51867;DHT22;52862;52.504;13.480;2023-12-04T10:34:40;0.50;99.90
51867;DHT22;52862;52.504;13.480;2023-12-04T10:37:10;0.40;99.90
51867;DHT22;52862;52.504;13.480;2023-12-04T10:39:45;-0.10;99.90
51867;DHT22;52862;52.504;13.480;2023-12-04T10:42:23;0.50;99.90
51867;DHT22;52862;52.504;13.480;2023-12-04T10:44:50;0.40;99.90
51867;DHT22;52862;52.504;13.480;2023-12-04T10:47:18;0.40;99.90
51867;DHT22;52862;52.504;13.480;2023-12-04T10:49:48;0.70;99.90
51867;DHT22;52862;52.504;13.480;2023-12-04T10:52:16;1.30;99.90
51867;DHT22;52862;52.504;13.480;2023-12-04T10:54:46;0.50;99.90
51867;DHT22;52862;52.504;13.480;2023-12-04T10:57:20;0.80;99.90
51867;DHT22;52862;52.504;13.480;2023-12-04T10:59:48;0.50;99.90
51867;DHT22;52862;52.504;13.480;2023-12-04T11:02:21;0.60;99.90
51867;DHT22;52862;52.504;13.480;2023-12-04T11:04:50;0.80;99.90
51867;DHT22;52862;52.504;13.480;2023-12-04T11:07:18;1.00;99.90
51867;DHT22;52862;52.504;13.480;2023-12-04T11:09:48;1.20;99.90
51867;DHT22;52862;52.504;13.480;2023-12-04T11:12:18;1.10;99.90
51867;DHT22;52862;52.504;13.480;2023-12-04T11:14:59;1.10;99.90
51867;DHT22;52862;52.504;13.480;2023-12-04T11:17:33;0.70;99.90
51867;DHT22;52862;52.504;13.480;2023-12-04T11:20:07;1.30;99.90
51867;DHT22;52862;52.504;13.480;2023-12-04T11:22:35;0.70;99.90
51867;DHT22;52862;52.504;13.480;2023-12-04T11:25:06;0.60;99.90
51867;DHT22;52862;52.504;13.480;2023-12-04T11:27:36;0.70;99.90
51867;DHT22;52862;52.504;13.480;2023-12-04T11:30:04;0.80;99.90
51867;DHT22;52862;52.504;13.480;2023-12-04T11:32:32;0.80;99.90
51867;DHT22;52862;52.504;13.480;2023-12-04T11:35:12;1.00;99.90
51867;DHT22;52862;52.504;13.480;2023-12-04T11:37:41;0.40;99.90
51867;DHT22;52862;52.504;13.480;2023-12-04T11:40:12;0.20;99.90
51867;DHT22;52862;52.504;13.480;2023-12-04T11:42:40;0.80;99.90
51867;DHT22;52862;52.504;13.480;2023-12-04T11:45:07;1.10;99.90
51867;DHT22;52862;52.504;13.480;2023-12-04T11:47:50;0.90;99.90
51867;DHT22;52862;52.504;13.480;2023-12-04T11:50:18;1.00;99.90
51867;DHT22;52862;52.504;13.480;2023-12-04T11:52:45;1.10;99.90
51867;DHT22;52862;52.504;13.480;2023-12-04T11:55:16;0.90;99.90
51867;DHT22;52862;52.504;13.480;2023-12-04T11:57:43;2.10;99.90
51867;DHT22;52862;52.504;13.480;2023-12-04T12:00:13;1.20;99.90
51867;DHT22;52862;52.504;13.480;2023-12-04T12:02:48;1.20;99.90
51867;DHT22;52862;52.504;13.480;2023-12-04T12:05:36;1.20;99.90
51867;DHT22;52862;52.504;13.480;2023-12-04T12:08:05;2.20;99.90
51867;DHT22;52862;52.504;13.480;2023-12-04T12:10:36;1.50;99.90
51867;DHT22;52862;52.504;13.480;2023-12-04T12:13:03;2.00;99.90
51867;DHT22;52862;52.504;13.480;2023-12-04T12:15:32;1.20;99.90
51867;DHT22;52862;52.504;13.480;2023-12-04T12:17:59;1.40;99.90
51867;DHT22;52862;52.504;13.480;2023-12-04T12:20:26;1.30;99.90
51867;DHT22;52862;52.504;13.480;2023-12-04T12:22:54;1.70;99.90
51867;DHT22;52862;52.504;13.480;2023-12-04T12:25:20;2.10;99.90
51867;DHT22;52862;52.504;13.480;2023-12-04T12:27:50;2.10;99.90
51867;DHT22;52862;52.504;13.480;2023-12-04T12:30:17;1.30;99.90
51867;DHT22;52862;52.504;13.480;2023-12-04T12:32:44;1.20;99.90
51867;DHT22;52862;52.504;13.480;2023-12-04T12:35:10;1.10;99.90
51867;DHT22;52862;52.504;13.480;2023-12-04T12:37:39;1.10;99.90
51867;DHT22;52862;52.504;13.480;2023-12-04T12:40:07;1.40;99.90
51867;DHT22;52862;52.504;13.480;2023-12-04T12:42:36;1.00;99.90
51867;DHT22;52862;52.504;13.480;2023-12-04T12:45:06;1.10;99.90
51867;DHT22;52862;52.504;13.480;2023-12-04T12:47:32;1.10;99.90
51867;DHT22;52862;52.504;13.480;2023-12-04T12:50:01;1.40;99.90
51867;DHT22;52862;52.504;13.480;2023-12-04T12:52:29;1.10;99.90
51867;DHT22;52862;52.504;13.480;2023-12-04T12:54:56;1.00;99.90
51867;DHT22;52862;52.504;13.480;2023-12-04T12:57:23;1.30;99.90
51867;DHT22;52862;52.504;13.480;2023-12-04T12:59:51;1.20;99.90
51867;DHT22;52862;52.504;13.480;2023-12-04T13:02:20;1.00;99.90
51867;DHT22;52862;52.504;13.480;2023-12-04T13:04:47;1.50;99.90
51867;DHT22;52862;52.504;13.480;2023-12-04T13:07:14;1.10;99.90
51867;DHT22;52862;52.504;13.480;2023-12-04T13:09:40;0.50;99.90
51867;DHT22;52862;52.504;13.480;2023-12-04T13:12:08;1.00;99.90
51867;DHT22;52862;52.504;13.480;2023-12-04T13:14:35;0.90;99.90
51867;DHT22;52862;52.504;13.480;2023-12-04T13:17:02;0.80;99.90
51867;DHT22;52862;52.504;13.480;2023-12-04T13:19:29;0.90;99.90
51867;DHT22;52862;52.504;13.480;2023-12-04T13:21:58;1.10;99.90
51867;DHT22;52862;52.504;13.480;2023-12-04T13:24:24;0.90;99.90
51867;DHT22;52862;52.504;13.480;2023-12-04T13:26:52;1.50;99.90
51867;DHT22;52862;52.504;13.480;2023-12-04T13:29:19;1.00;99.90
51867;DHT22;52862;52.504;13.480;2023-12-04T13:31:47;1.20;99.90
51867;DHT22;52862;52.504;13.480;2023-12-04T13:34:17;0.80;99.90
51867;DHT22;52862;52.504;13.480;2023-12-04T13:36:44;0.70;99.90
51867;DHT22;52862;52.504;13.480;2023-12-04T13:39:11;0.80;99.90
51867;DHT22;52862;52.504;13.480;2023-12-04T13:41:44;0.70;99.90
51867;DHT22;52862;52.504;13.480;2023-12-04T13:44:30;0.70;99.90
51867;DHT22;52862;52.504;13.480;2023-12-04T13:46:57;0.60;99.90
51867;DHT22;52862;52.504;13.480;2023-12-04T13:49:23;0.60;99.90
51867;DHT22;52862;52.504;13.480;2023-12-04T13:51:51;0.70;99.90
51867;DHT22;52862;52.504;13.480;2023-12-04T13:54:21;0.70;99.90
51867;DHT22;52862;52.504;13.480;2023-12-04T13:56:53;0.60;99.90
51867;DHT22;52862;52.504;13.480;2023-12-04T13:59:20;0.50;99.90
51867;DHT22;52862;52.504;13.480;2023-12-04T14:01:48;0.50;99.90
51867;DHT22;52862;52.504;13.480;2023-12-04T14:06:44;0.20;99.90
51867;DHT22;52862;52.504;13.480;2023-12-04T14:09:12;0.40;99.90
51867;DHT22;52862;52.504;13.480;2023-12-04T14:11:42;0.30;99.90
51867;DHT22;52862;52.504;13.480;2023-12-04T14:14:10;0.40;99.90
51867;DHT22;52862;52.504;13.480;2023-12-04T14:16:39;0.30;99.90
51867;DHT22;52862;52.504;13.480;2023-12-04T14:19:06;0.10;99.90
51867;DHT22;52862;52.504;13.480;2023-12-04T14:21:33;-0.10;99.90
51867;DHT22;52862;52.504;13.480;2023-12-04T14:24:00;0.30;99.90
51867;DHT22;52862;52.504;13.480;2023-12-04T14:26:29;0.40;99.90
51867;DHT22;52862;52.504;13.480;2023-12-04T14:28:56;1.30;99.90
51867;DHT22;52862;52.504;13.480;2023-12-04T14:31:27;-1.60;99.90
51867;DHT22;52862;52.504;13.480;2023-12-04T14:33:54;0.50;99.90
51867;DHT22;52862;52.504;13.480;2023-12-04T14:36:21;-0.20;99.90
51867;DHT22;52862;52.504;13.480;2023-12-04T14:38:47;0.40;99.90
51867;DHT22;52862;52.504;13.480;2023-12-04T14:43:43;0.10;99.90
51867;DHT22;52862;52.504;13.480;2023-12-04T14:46:10;0.30;99.90
51867;DHT22;52862;52.504;13.480;2023-12-04T14:48:38;0.30;99.90
51867;DHT22;52862;52.504;13.480;2023-12-04T14:51:06;0.20;99.90
51867;DHT22;52862;52.504;13.480;2023-12-04T14:53:33;0.30;99.90
51867;DHT22;52862;52.504;13.480;2023-12-04T14:56:10;0.50;99.90
51867;DHT22;52862;52.504;13.480;2023-12-04T14:59:02;0.50;99.90
51867;DHT22;52862;52.504;13.480;2023-12-04T15:01:46;0.30;99.90
51867;DHT22;52862;52.504;13.480;2023-12-04T15:04:30;0.20;99.90
51867;DHT22;52862;52.504;13.480;2023-12-04T15:07:14;1.00;99.90
51867;DHT22;52862;52.504;13.480;2023-12-04T15:10:00;0.30;99.90
51867;DHT22;52862;52.504;13.480;2023-12-04T15:12:47;0.40;99.90
51867;DHT22;52862;52.504;13.480;2023-12-04T15:15:51;0.50;99.90
51867;DHT22;52862;52.504;13.480;2023-12-04T15:18:42;0.30;99.90
51867;DHT22;52862;52.504;13.480;2023-12-04T15:21:27;1.40;99.90
51867;DHT22;52862;52.504;13.480;2023-12-04T15:23:55;0.40;99.90
51867;DHT22;52862;52.504;13.480;2023-12-04T15:26:23;1.10;99.90
51867;DHT22;52862;52.504;13.480;2023-12-04T15:28:50;0.40;99.90
51867;DHT22;52862;52.504;13.480;2023-12-04T15:31:17;1.10;99.90
51867;DHT22;52862;52.504;13.480;2023-12-04T15:33:44;0.50;99.90
51867;DHT22;52862;52.504;13.480;2023-12-04T15:36:11;-1.10;99.90